sensor_id;sensor_type;location;lat;lon;timestamp;P1;durP1;ratioP1;P2;durP2;ratioP2
23682;SDS011;24897;53.514;10.482;2023-03-29T00:01:24;63.67;;;58.73;;
23682;SDS011;24897;53.514;10.482;2023-03-29T00:04:13;65.87;;;60.83;;
23682;SDS011;24897;53.514;10.482;2023-03-29T00:07:02;66.77;;;61.53;;
23682;SDS011;24897;53.514;10.482;2023-03-29T00:09:46;67.23;;;61.80;;
23682;SDS011;24897;53.514;10.482;2023-03-29T00:12:31;68.07;;;62.73;;
23682;SDS011;24897;53.514;10.482;2023-03-29T00:15:15;67.43;;;61.87;;
23682;SDS011;24897;53.514;10.482;2023-03-29T00:18:00;63.77;;;58.60;;
23682;SDS011;24897;53.514;10.482;2023-03-29T00:20:44;65.90;;;60.80;;
23682;SDS011;24897;53.514;10.482;2023-03-29T00:23:28;59.63;;;54.77;;
23682;SDS011;24897;53.514;10.482;2023-03-29T00:26:13;56.93;;;52.53;;
23682;SDS011;24897;53.514;10.482;2023-03-29T00:28:57;52.40;;;48.07;;
23682;SDS011;24897;53.514;10.482;2023-03-29T00:31:41;51.97;;;47.67;;
23682;SDS011;24897;53.514;10.482;2023-03-29T00:34:28;51.77;;;47.57;;
23682;SDS011;24897;53.514;10.482;2023-03-29T00:37:13;52.10;;;47.70;;
23682;SDS011;24897;53.514;10.482;2023-03-29T00:39:57;53.00;;;48.43;;
23682;SDS011;24897;53.514;10.482;2023-03-29T00:42:45;45.80;;;42.00;;
23682;SDS011;24897;53.514;10.482;2023-03-29T00:45:29;39.00;;;35.47;;
23682;SDS011;24897;53.514;10.482;2023-03-29T00:48:15;39.80;;;35.77;;
23682;SDS011;24897;53.514;10.482;2023-03-29T00:51:04;29.43;;;26.53;;
23682;SDS011;24897;53.514;10.482;2023-03-29T00:53:51;29.07;;;26.13;;
23682;SDS011;24897;53.514;10.482;2023-03-29T00:56:40;30.67;;;27.67;;
23682;SDS011;24897;53.514;10.482;2023-03-29T00:59:28;32.93;;;29.93;;
23682;SDS011;24897;53.514;10.482;2023-03-29T01:02:15;32.53;;;27.60;;
23682;SDS011;24897;53.514;10.482;2023-03-29T01:05:06;30.50;;;27.33;;
23682;SDS011;24897;53.514;10.482;2023-03-29T01:07:57;30.50;;;27.40;;
23682;SDS011;24897;53.514;10.482;2023-03-29T01:11:29;30.83;;;27.57;;
23682;SDS011;24897;53.514;10.482;2023-03-29T01:16:46;29.57;;;26.60;;
23682;SDS011;24897;53.514;10.482;2023-03-29T01:19:33;31.70;;;28.50;;
23682;SDS011;24897;53.514;10.482;2023-03-29T01:25:37;32.33;;;29.10;;
23682;SDS011;24897;53.514;10.482;2023-03-29T01:28:37;31.50;;;28.20;;
23682;SDS011;24897;53.514;10.482;2023-03-29T01:31:29;31.60;;;28.30;;
23682;SDS011;24897;53.514;10.482;2023-03-29T01:37:21;30.00;;;26.77;;
23682;SDS011;24897;53.514;10.482;2023-03-29T01:40:10;29.00;;;26.10;;
23682;SDS011;24897;53.514;10.482;2023-03-29T01:46:50;29.20;;;26.10;;
23682;SDS011;24897;53.514;10.482;2023-03-29T01:49:40;31.07;;;26.47;;
23682;SDS011;24897;53.514;10.482;2023-03-29T01:52:51;29.27;;;26.40;;
23682;SDS011;24897;53.514;10.482;2023-03-29T01:55:42;29.87;;;26.50;;
23682;SDS011;24897;53.514;10.482;2023-03-29T01:58:31;30.17;;;27.03;;
23682;SDS011;24897;53.514;10.482;2023-03-29T02:01:22;31.17;;;27.50;;
23682;SDS011;24897;53.514;10.482;2023-03-29T02:04:10;30.80;;;27.90;;
23682;SDS011;24897;53.514;10.482;2023-03-29T02:06:57;31.07;;;28.03;;
23682;SDS011;24897;53.514;10.482;2023-03-29T02:09:44;31.67;;;28.50;;
23682;SDS011;24897;53.514;10.482;2023-03-29T02:12:32;32.10;;;28.77;;
23682;SDS011;24897;53.514;10.482;2023-03-29T02:15:17;32.20;;;29.00;;
23682;SDS011;24897;53.514;10.482;2023-03-29T02:18:02;33.40;;;30.03;;
23682;SDS011;24897;53.514;10.482;2023-03-29T02:20:49;33.97;;;30.30;;
23682;SDS011;24897;53.514;10.482;2023-03-29T02:23:39;34.03;;;30.53;;
23682;SDS011;24897;53.514;10.482;2023-03-29T02:26:28;35.10;;;31.60;;
23682;SDS011;24897;53.514;10.482;2023-03-29T02:29:12;34.67;;;31.00;;
23682;SDS011;24897;53.514;10.482;2023-03-29T02:32:10;35.27;;;31.50;;
23682;SDS011;24897;53.514;10.482;2023-03-29T02:35:06;35.23;;;31.47;;
23682;SDS011;24897;53.514;10.482;2023-03-29T02:37:56;36.70;;;32.40;;
23682;SDS011;24897;53.514;10.482;2023-03-29T02:40:42;35.33;;;31.60;;
23682;SDS011;24897;53.514;10.482;2023-03-29T02:43:26;36.30;;;32.67;;
23682;SDS011;24897;53.514;10.482;2023-03-29T02:46:12;35.17;;;31.57;;
23682;SDS011;24897;53.514;10.482;2023-03-29T02:48:58;35.20;;;31.60;;
23682;SDS011;24897;53.514;10.482;2023-03-29T02:51:43;35.83;;;32.43;;
23682;SDS011;24897;53.514;10.482;2023-03-29T02:54:30;36.60;;;32.80;;
23682;SDS011;24897;53.514;10.482;2023-03-29T02:57:15;36.03;;;32.53;;
23682;SDS011;24897;53.514;10.482;2023-03-29T03:00:00;36.50;;;32.90;;
23682;SDS011;24897;53.514;10.482;2023-03-29T03:02:44;35.27;;;31.67;;
23682;SDS011;24897;53.514;10.482;2023-03-29T03:05:29;36.10;;;32.47;;
23682;SDS011;24897;53.514;10.482;2023-03-29T03:08:14;35.67;;;32.00;;
23682;SDS011;24897;53.514;10.482;2023-03-29T03:10:58;35.97;;;32.53;;
23682;SDS011;24897;53.514;10.482;2023-03-29T03:13:42;35.83;;;32.27;;
23682;SDS011;24897;53.514;10.482;2023-03-29T03:16:26;34.23;;;31.00;;
23682;SDS011;24897;53.514;10.482;2023-03-29T03:19:11;34.50;;;30.80;;
23682;SDS011;24897;53.514;10.482;2023-03-29T03:21:56;34.07;;;30.67;;
23682;SDS011;24897;53.514;10.482;2023-03-29T03:24:41;32.90;;;29.70;;
23682;SDS011;24897;53.514;10.482;2023-03-29T03:27:25;33.10;;;29.70;;
23682;SDS011;24897;53.514;10.482;2023-03-29T03:30:09;32.80;;;29.40;;
23682;SDS011;24897;53.514;10.482;2023-03-29T03:32:54;35.70;;;30.73;;
23682;SDS011;24897;53.514;10.482;2023-03-29T03:35:38;32.57;;;29.37;;
23682;SDS011;24897;53.514;10.482;2023-03-29T03:38:22;31.97;;;28.87;;
23682;SDS011;24897;53.514;10.482;2023-03-29T03:41:07;32.40;;;29.30;;
23682;SDS011;24897;53.514;10.482;2023-03-29T03:43:51;32.80;;;29.57;;
23682;SDS011;24897;53.514;10.482;2023-03-29T03:46:35;33.87;;;29.60;;
23682;SDS011;24897;53.514;10.482;2023-03-29T03:49:21;31.97;;;28.90;;
23682;SDS011;24897;53.514;10.482;2023-03-29T03:52:06;32.83;;;29.50;;
23682;SDS011;24897;53.514;10.482;2023-03-29T03:54:50;32.57;;;29.30;;
23682;SDS011;24897;53.514;10.482;2023-03-29T03:57:34;32.57;;;29.47;;
23682;SDS011;24897;53.514;10.482;2023-03-29T04:00:22;32.47;;;29.13;;
23682;SDS011;24897;53.514;10.482;2023-03-29T04:03:07;32.20;;;28.93;;
23682;SDS011;24897;53.514;10.482;2023-03-29T04:05:51;31.67;;;28.43;;
23682;SDS011;24897;53.514;10.482;2023-03-29T04:08:36;30.77;;;26.83;;
23682;SDS011;24897;53.514;10.482;2023-03-29T04:11:20;29.77;;;26.87;;
23682;SDS011;24897;53.514;10.482;2023-03-29T04:14:04;29.33;;;26.40;;
23682;SDS011;24897;53.514;10.482;2023-03-29T04:16:48;29.43;;;26.53;;
23682;SDS011;24897;53.514;10.482;2023-03-29T04:19:32;28.23;;;25.10;;
23682;SDS011;24897;53.514;10.482;2023-03-29T04:22:16;27.87;;;25.00;;
23682;SDS011;24897;53.514;10.482;2023-03-29T04:25:01;27.80;;;24.80;;
23682;SDS011;24897;53.514;10.482;2023-03-29T04:27:45;28.17;;;25.43;;
23682;SDS011;24897;53.514;10.482;2023-03-29T04:30:29;27.20;;;24.60;;
23682;SDS011;24897;53.514;10.482;2023-03-29T04:33:13;28.30;;;24.73;;
23682;SDS011;24897;53.514;10.482;2023-03-29T04:35:58;27.93;;;25.07;;
23682;SDS011;24897;53.514;10.482;2023-03-29T04:38:42;26.40;;;23.70;;
23682;SDS011;24897;53.514;10.482;2023-03-29T04:41:26;27.80;;;24.03;;
23682;SDS011;24897;53.514;10.482;2023-03-29T04:44:11;26.60;;;23.90;;
23682;SDS011;24897;53.514;10.482;2023-03-29T04:46:56;26.73;;;23.93;;
23682;SDS011;24897;53.514;10.482;2023-03-29T04:49:40;26.67;;;24.20;;
23682;SDS011;24897;53.514;10.482;2023-03-29T04:52:25;30.83;;;25.10;;
23682;SDS011;24897;53.514;10.482;2023-03-29T04:55:10;28.63;;;25.57;;
23682;SDS011;24897;53.514;10.482;2023-03-29T04:57:55;28.33;;;25.63;;
23682;SDS011;24897;53.514;10.482;2023-03-29T05:00:39;28.27;;;25.07;;
23682;SDS011;24897;53.514;10.482;2023-03-29T05:03:23;27.90;;;25.40;;
23682;SDS011;24897;53.514;10.482;2023-03-29T05:06:08;29.83;;;26.87;;
23682;SDS011;24897;53.514;10.482;2023-03-29T05:08:54;27.70;;;25.10;;
23682;SDS011;24897;53.514;10.482;2023-03-29T05:11:39;28.93;;;25.30;;
23682;SDS011;24897;53.514;10.482;2023-03-29T05:14:24;30.30;;;27.10;;
23682;SDS011;24897;53.514;10.482;2023-03-29T05:17:08;30.30;;;27.00;;
23682;SDS011;24897;53.514;10.482;2023-03-29T05:19:52;29.57;;;26.37;;
23682;SDS011;24897;53.514;10.482;2023-03-29T05:22:37;30.70;;;27.57;;
23682;SDS011;24897;53.514;10.482;2023-03-29T05:25:22;30.20;;;27.30;;
23682;SDS011;24897;53.514;10.482;2023-03-29T05:28:08;29.00;;;26.10;;
23682;SDS011;24897;53.514;10.482;2023-03-29T05:31:03;30.77;;;26.17;;
23682;SDS011;24897;53.514;10.482;2023-03-29T05:33:48;30.27;;;27.27;;
23682;SDS011;24897;53.514;10.482;2023-03-29T05:36:33;29.70;;;26.70;;
23682;SDS011;24897;53.514;10.482;2023-03-29T05:39:18;30.60;;;27.43;;
23682;SDS011;24897;53.514;10.482;2023-03-29T05:42:02;32.10;;;28.73;;
23682;SDS011;24897;53.514;10.482;2023-03-29T05:44:47;29.73;;;26.93;;
23682;SDS011;24897;53.514;10.482;2023-03-29T05:47:32;29.30;;;26.20;;
23682;SDS011;24897;53.514;10.482;2023-03-29T05:50:16;29.17;;;26.17;;
23682;SDS011;24897;53.514;10.482;2023-03-29T05:53:01;29.90;;;26.90;;
23682;SDS011;24897;53.514;10.482;2023-03-29T05:55:46;29.57;;;26.57;;
23682;SDS011;24897;53.514;10.482;2023-03-29T05:58:31;29.77;;;26.87;;
23682;SDS011;24897;53.514;10.482;2023-03-29T06:01:15;31.53;;;27.53;;
23682;SDS011;24897;53.514;10.482;2023-03-29T06:04:02;30.03;;;27.10;;
23682;SDS011;24897;53.514;10.482;2023-03-29T06:06:46;29.07;;;26.23;;
23682;SDS011;24897;53.514;10.482;2023-03-29T06:09:31;30.23;;;27.03;;
23682;SDS011;24897;53.514;10.482;2023-03-29T06:12:16;30.60;;;27.60;;
23682;SDS011;24897;53.514;10.482;2023-03-29T06:15:03;30.63;;;27.43;;
23682;SDS011;24897;53.514;10.482;2023-03-29T06:17:48;31.47;;;28.37;;
23682;SDS011;24897;53.514;10.482;2023-03-29T06:20:32;33.20;;;28.70;;
23682;SDS011;24897;53.514;10.482;2023-03-29T06:23:17;31.97;;;28.83;;
23682;SDS011;24897;53.514;10.482;2023-03-29T06:26:02;31.50;;;28.30;;
23682;SDS011;24897;53.514;10.482;2023-03-29T06:28:48;31.17;;;28.07;;
23682;SDS011;24897;53.514;10.482;2023-03-29T06:31:32;30.47;;;27.50;;
23682;SDS011;24897;53.514;10.482;2023-03-29T06:34:18;32.30;;;29.00;;
23682;SDS011;24897;53.514;10.482;2023-03-29T06:37:03;31.43;;;28.13;;
23682;SDS011;24897;53.514;10.482;2023-03-29T06:39:48;30.77;;;27.93;;
23682;SDS011;24897;53.514;10.482;2023-03-29T06:42:36;30.50;;;27.67;;
23682;SDS011;24897;53.514;10.482;2023-03-29T06:45:22;30.53;;;27.67;;
23682;SDS011;24897;53.514;10.482;2023-03-29T06:48:07;31.47;;;28.37;;
23682;SDS011;24897;53.514;10.482;2023-03-29T06:50:51;31.33;;;27.93;;
23682;SDS011;24897;53.514;10.482;2023-03-29T06:53:37;31.37;;;28.00;;
23682;SDS011;24897;53.514;10.482;2023-03-29T06:56:21;31.83;;;28.83;;
23682;SDS011;24897;53.514;10.482;2023-03-29T06:59:06;31.07;;;28.07;;
23682;SDS011;24897;53.514;10.482;2023-03-29T07:01:51;31.87;;;28.67;;
23682;SDS011;24897;53.514;10.482;2023-03-29T07:04:39;33.30;;;29.97;;
23682;SDS011;24897;53.514;10.482;2023-03-29T07:07:24;31.37;;;28.23;;
23682;SDS011;24897;53.514;10.482;2023-03-29T07:10:15;32.50;;;29.40;;
23682;SDS011;24897;53.514;10.482;2023-03-29T07:12:59;33.17;;;29.87;;
23682;SDS011;24897;53.514;10.482;2023-03-29T07:15:44;33.47;;;30.17;;
23682;SDS011;24897;53.514;10.482;2023-03-29T07:18:28;31.70;;;28.40;;
23682;SDS011;24897;53.514;10.482;2023-03-29T07:21:13;31.77;;;28.77;;
23682;SDS011;24897;53.514;10.482;2023-03-29T07:23:57;31.80;;;28.53;;
23682;SDS011;24897;53.514;10.482;2023-03-29T07:26:41;30.63;;;27.73;;
23682;SDS011;24897;53.514;10.482;2023-03-29T07:29:26;31.17;;;28.17;;
23682;SDS011;24897;53.514;10.482;2023-03-29T07:32:11;31.80;;;28.77;;
23682;SDS011;24897;53.514;10.482;2023-03-29T07:34:55;31.07;;;28.03;;
23682;SDS011;24897;53.514;10.482;2023-03-29T07:37:39;31.37;;;28.17;;
23682;SDS011;24897;53.514;10.482;2023-03-29T07:40:25;30.50;;;27.50;;
23682;SDS011;24897;53.514;10.482;2023-03-29T07:43:09;31.20;;;28.00;;
23682;SDS011;24897;53.514;10.482;2023-03-29T07:45:54;35.17;;;31.60;;
23682;SDS011;24897;53.514;10.482;2023-03-29T07:48:41;30.33;;;27.43;;
23682;SDS011;24897;53.514;10.482;2023-03-29T07:51:25;29.50;;;26.80;;
23682;SDS011;24897;53.514;10.482;2023-03-29T07:54:10;29.30;;;26.80;;
23682;SDS011;24897;53.514;10.482;2023-03-29T07:56:55;29.77;;;26.97;;
23682;SDS011;24897;53.514;10.482;2023-03-29T07:59:40;29.07;;;26.43;;
23682;SDS011;24897;53.514;10.482;2023-03-29T08:02:24;28.97;;;26.30;;
23682;SDS011;24897;53.514;10.482;2023-03-29T08:05:10;28.10;;;25.23;;
23682;SDS011;24897;53.514;10.482;2023-03-29T08:07:56;26.80;;;24.30;;
23682;SDS011;24897;53.514;10.482;2023-03-29T08:10:40;26.93;;;24.47;;
23682;SDS011;24897;53.514;10.482;2023-03-29T08:13:25;27.13;;;24.53;;
23682;SDS011;24897;53.514;10.482;2023-03-29T08:16:09;25.03;;;22.67;;
23682;SDS011;24897;53.514;10.482;2023-03-29T08:18:53;26.27;;;23.87;;
23682;SDS011;24897;53.514;10.482;2023-03-29T08:21:38;26.93;;;24.23;;
23682;SDS011;24897;53.514;10.482;2023-03-29T08:24:22;26.47;;;23.90;;
23682;SDS011;24897;53.514;10.482;2023-03-29T08:27:07;26.80;;;24.20;;
23682;SDS011;24897;53.514;10.482;2023-03-29T08:29:51;27.60;;;24.87;;
23682;SDS011;24897;53.514;10.482;2023-03-29T08:32:35;26.73;;;24.37;;
23682;SDS011;24897;53.514;10.482;2023-03-29T08:35:20;26.37;;;23.97;;
23682;SDS011;24897;53.514;10.482;2023-03-29T08:38:05;25.50;;;23.10;;
23682;SDS011;24897;53.514;10.482;2023-03-29T08:40:49;26.63;;;24.23;;
23682;SDS011;24897;53.514;10.482;2023-03-29T08:49:24;27.07;;;24.47;;
23682;SDS011;24897;53.514;10.482;2023-03-29T08:55:37;25.93;;;23.40;;
23682;SDS011;24897;53.514;10.482;2023-03-29T08:58:25;25.53;;;23.13;;
23682;SDS011;24897;53.514;10.482;2023-03-29T09:01:12;26.10;;;23.60;;
23682;SDS011;24897;53.514;10.482;2023-03-29T09:06:47;26.03;;;23.73;;
23682;SDS011;24897;53.514;10.482;2023-03-29T09:09:32;24.40;;;22.20;;
23682;SDS011;24897;53.514;10.482;2023-03-29T09:15:39;24.13;;;21.93;;
23682;SDS011;24897;53.514;10.482;2023-03-29T09:18:40;24.60;;;22.40;;
23682;SDS011;24897;53.514;10.482;2023-03-29T09:24:29;24.20;;;21.90;;
23682;SDS011;24897;53.514;10.482;2023-03-29T09:27:45;24.93;;;22.43;;
23682;SDS011;24897;53.514;10.482;2023-03-29T09:30:40;24.37;;;22.07;;
23682;SDS011;24897;53.514;10.482;2023-03-29T09:33:43;24.53;;;21.97;;
23682;SDS011;24897;53.514;10.482;2023-03-29T09:36:43;23.67;;;21.33;;
23682;SDS011;24897;53.514;10.482;2023-03-29T09:39:38;25.07;;;22.87;;
23682;SDS011;24897;53.514;10.482;2023-03-29T09:42:24;23.97;;;21.67;;
23682;SDS011;24897;53.514;10.482;2023-03-29T09:45:11;23.67;;;21.53;;
23682;SDS011;24897;53.514;10.482;2023-03-29T09:48:04;24.13;;;21.83;;
23682;SDS011;24897;53.514;10.482;2023-03-29T09:50:56;24.53;;;22.23;;
23682;SDS011;24897;53.514;10.482;2023-03-29T09:53:43;23.70;;;21.37;;
23682;SDS011;24897;53.514;10.482;2023-03-29T09:56:27;24.10;;;21.90;;
23682;SDS011;24897;53.514;10.482;2023-03-29T09:59:12;23.90;;;21.70;;
23682;SDS011;24897;53.514;10.482;2023-03-29T10:02:06;23.90;;;21.50;;
23682;SDS011;24897;53.514;10.482;2023-03-29T10:04:52;23.43;;;21.30;;
23682;SDS011;24897;53.514;10.482;2023-03-29T10:07:44;24.00;;;21.63;;
23682;SDS011;24897;53.514;10.482;2023-03-29T10:10:33;23.00;;;20.90;;
23682;SDS011;24897;53.514;10.482;2023-03-29T10:13:26;23.47;;;21.33;;
23682;SDS011;24897;53.514;10.482;2023-03-29T10:16:17;23.40;;;21.27;;
23682;SDS011;24897;53.514;10.482;2023-03-29T10:22:10;22.07;;;19.80;;
23682;SDS011;24897;53.514;10.482;2023-03-29T10:24:59;22.43;;;20.17;;
23682;SDS011;24897;53.514;10.482;2023-03-29T10:27:45;22.13;;;20.10;;
23682;SDS011;24897;53.514;10.482;2023-03-29T10:30:31;21.87;;;19.67;;
23682;SDS011;24897;53.514;10.482;2023-03-29T10:33:19;22.30;;;20.20;;
23682;SDS011;24897;53.514;10.482;2023-03-29T10:36:06;22.57;;;20.47;;
23682;SDS011;24897;53.514;10.482;2023-03-29T10:38:58;22.77;;;20.57;;
23682;SDS011;24897;53.514;10.482;2023-03-29T10:41:44;22.47;;;20.47;;
23682;SDS011;24897;53.514;10.482;2023-03-29T10:44:35;23.63;;;21.43;;
23682;SDS011;24897;53.514;10.482;2023-03-29T10:47:20;23.27;;;20.97;;
23682;SDS011;24897;53.514;10.482;2023-03-29T10:50:05;23.27;;;21.17;;
23682;SDS011;24897;53.514;10.482;2023-03-29T10:52:52;23.23;;;21.03;;
23682;SDS011;24897;53.514;10.482;2023-03-29T10:55:40;24.70;;;22.13;;
23682;SDS011;24897;53.514;10.482;2023-03-29T11:11:03;26.77;;;24.03;;
23682;SDS011;24897;53.514;10.482;2023-03-29T11:17:19;26.80;;;24.20;;
23682;SDS011;24897;53.514;10.482;2023-03-29T11:20:15;27.50;;;24.73;;
23682;SDS011;24897;53.514;10.482;2023-03-29T11:23:19;27.47;;;24.67;;
23682;SDS011;24897;53.514;10.482;2023-03-29T11:41:29;26.73;;;23.90;;
23682;SDS011;24897;53.514;10.482;2023-03-29T11:44:19;26.27;;;23.70;;
23682;SDS011;24897;53.514;10.482;2023-03-29T11:47:13;26.30;;;23.60;;
23682;SDS011;24897;53.514;10.482;2023-03-29T11:55:41;27.30;;;24.30;;
23682;SDS011;24897;53.514;10.482;2023-03-29T11:58:28;27.43;;;24.73;;
23682;SDS011;24897;53.514;10.482;2023-03-29T12:01:19;28.43;;;25.33;;
23682;SDS011;24897;53.514;10.482;2023-03-29T12:04:30;27.03;;;24.40;;
23682;SDS011;24897;53.514;10.482;2023-03-29T12:10:18;27.60;;;24.90;;
23682;SDS011;24897;53.514;10.482;2023-03-29T12:13:08;28.20;;;25.60;;
23682;SDS011;24897;53.514;10.482;2023-03-29T12:19:07;29.30;;;26.30;;
23682;SDS011;24897;53.514;10.482;2023-03-29T12:21:57;29.40;;;26.60;;
23682;SDS011;24897;53.514;10.482;2023-03-29T12:24:43;30.00;;;27.00;;
23682;SDS011;24897;53.514;10.482;2023-03-29T12:39:31;32.17;;;28.97;;
23682;SDS011;24897;53.514;10.482;2023-03-29T12:42:20;31.80;;;28.87;;
23682;SDS011;24897;53.514;10.482;2023-03-29T12:45:11;32.37;;;28.93;;
23682;SDS011;24897;53.514;10.482;2023-03-29T12:48:01;32.47;;;29.23;;
23682;SDS011;24897;53.514;10.482;2023-03-29T12:50:50;31.90;;;28.70;;
23682;SDS011;24897;53.514;10.482;2023-03-29T12:56:37;31.17;;;28.20;;
23682;SDS011;24897;53.514;10.482;2023-03-29T13:02:25;30.73;;;27.87;;
23682;SDS011;24897;53.514;10.482;2023-03-29T13:05:27;29.07;;;26.27;;
23682;SDS011;24897;53.514;10.482;2023-03-29T13:08:21;29.97;;;27.17;;
23682;SDS011;24897;53.514;10.482;2023-03-29T13:11:33;29.67;;;26.77;;
23682;SDS011;24897;53.514;10.482;2023-03-29T13:14:26;29.47;;;26.60;;
23682;SDS011;24897;53.514;10.482;2023-03-29T13:17:20;29.47;;;26.77;;
23682;SDS011;24897;53.514;10.482;2023-03-29T13:38:28;32.40;;;29.30;;
23682;SDS011;24897;53.514;10.482;2023-03-29T13:44:17;30.03;;;27.23;;
23682;SDS011;24897;53.514;10.482;2023-03-29T13:53:04;29.00;;;26.00;;
23682;SDS011;24897;53.514;10.482;2023-03-29T13:56:09;29.87;;;26.97;;
23682;SDS011;24897;53.514;10.482;2023-03-29T13:59:09;28.03;;;25.43;;
23682;SDS011;24897;53.514;10.482;2023-03-29T14:01:58;29.40;;;26.53;;
23682;SDS011;24897;53.514;10.482;2023-03-29T14:04:45;28.00;;;25.30;;
23682;SDS011;24897;53.514;10.482;2023-03-29T14:07:33;27.00;;;24.50;;
23682;SDS011;24897;53.514;10.482;2023-03-29T14:10:23;28.40;;;25.80;;
23682;SDS011;24897;53.514;10.482;2023-03-29T14:13:13;26.87;;;24.47;;
23682;SDS011;24897;53.514;10.482;2023-03-29T14:16:01;28.67;;;25.83;;
23682;SDS011;24897;53.514;10.482;2023-03-29T14:18:49;28.03;;;25.47;;
23682;SDS011;24897;53.514;10.482;2023-03-29T14:21:34;28.03;;;25.17;;
23682;SDS011;24897;53.514;10.482;2023-03-29T14:24:21;28.43;;;25.77;;
23682;SDS011;24897;53.514;10.482;2023-03-29T14:27:09;27.73;;;25.20;;
23682;SDS011;24897;53.514;10.482;2023-03-29T14:29:54;29.20;;;26.50;;
23682;SDS011;24897;53.514;10.482;2023-03-29T14:32:39;28.63;;;25.83;;
23682;SDS011;24897;53.514;10.482;2023-03-29T14:35:27;27.80;;;25.33;;
23682;SDS011;24897;53.514;10.482;2023-03-29T14:38:13;27.43;;;24.83;;
23682;SDS011;24897;53.514;10.482;2023-03-29T14:40:59;28.40;;;25.70;;
23682;SDS011;24897;53.514;10.482;2023-03-29T14:43:45;27.13;;;24.53;;
23682;SDS011;24897;53.514;10.482;2023-03-29T14:46:30;27.07;;;24.43;;
23682;SDS011;24897;53.514;10.482;2023-03-29T14:49:17;30.30;;;27.33;;
23682;SDS011;24897;53.514;10.482;2023-03-29T14:52:02;29.53;;;26.63;;
23682;SDS011;24897;53.514;10.482;2023-03-29T14:54:48;32.07;;;28.97;;
23682;SDS011;24897;53.514;10.482;2023-03-29T14:57:36;29.13;;;26.40;;
23682;SDS011;24897;53.514;10.482;2023-03-29T15:03:11;29.53;;;26.83;;
23682;SDS011;24897;53.514;10.482;2023-03-29T15:05:57;29.83;;;27.03;;
23682;SDS011;24897;53.514;10.482;2023-03-29T15:08:45;29.87;;;27.07;;
23682;SDS011;24897;53.514;10.482;2023-03-29T15:11:31;30.27;;;27.57;;
23682;SDS011;24897;53.514;10.482;2023-03-29T15:14:16;29.37;;;26.67;;
23682;SDS011;24897;53.514;10.482;2023-03-29T15:17:04;30.67;;;27.80;;
23682;SDS011;24897;53.514;10.482;2023-03-29T15:20:00;31.93;;;28.77;;
23682;SDS011;24897;53.514;10.482;2023-03-29T15:23:01;33.67;;;30.43;;
23682;SDS011;24897;53.514;10.482;2023-03-29T15:25:58;36.17;;;32.57;;
23682;SDS011;24897;53.514;10.482;2023-03-29T15:28:53;43.83;;;39.40;;
23682;SDS011;24897;53.514;10.482;2023-03-29T15:32:07;41.97;;;37.60;;
23682;SDS011;24897;53.514;10.482;2023-03-29T15:35:06;45.90;;;41.07;;
23682;SDS011;24897;53.514;10.482;2023-03-29T15:37:51;49.17;;;42.60;;
23682;SDS011;24897;53.514;10.482;2023-03-29T15:40:36;66.83;;;48.77;;
23682;SDS011;24897;53.514;10.482;2023-03-29T15:43:21;50.93;;;40.37;;
23682;SDS011;24897;53.514;10.482;2023-03-29T15:46:06;43.23;;;38.33;;
23682;SDS011;24897;53.514;10.482;2023-03-29T15:48:50;49.20;;;42.23;;
23682;SDS011;24897;53.514;10.482;2023-03-29T15:51:34;50.87;;;42.23;;
23682;SDS011;24897;53.514;10.482;2023-03-29T15:54:19;45.83;;;40.37;;
23682;SDS011;24897;53.514;10.482;2023-03-29T15:57:05;44.30;;;39.07;;
23682;SDS011;24897;53.514;10.482;2023-03-29T15:59:55;49.13;;;39.90;;
23682;SDS011;24897;53.514;10.482;2023-03-29T16:02:39;49.10;;;41.87;;
23682;SDS011;24897;53.514;10.482;2023-03-29T16:05:24;50.00;;;41.20;;
23682;SDS011;24897;53.514;10.482;2023-03-29T16:08:09;51.00;;;44.07;;
23682;SDS011;24897;53.514;10.482;2023-03-29T16:10:54;44.50;;;39.17;;
23682;SDS011;24897;53.514;10.482;2023-03-29T16:13:38;44.90;;;40.07;;
23682;SDS011;24897;53.514;10.482;2023-03-29T16:16:23;44.60;;;39.93;;
23682;SDS011;24897;53.514;10.482;2023-03-29T16:19:08;44.43;;;38.27;;
23682;SDS011;24897;53.514;10.482;2023-03-29T16:21:52;43.17;;;37.90;;
23682;SDS011;24897;53.514;10.482;2023-03-29T16:24:37;42.70;;;38.13;;
23682;SDS011;24897;53.514;10.482;2023-03-29T16:27:22;43.57;;;38.83;;
23682;SDS011;24897;53.514;10.482;2023-03-29T16:30:06;42.87;;;38.60;;
23682;SDS011;24897;53.514;10.482;2023-03-29T16:32:52;45.07;;;40.30;;
23682;SDS011;24897;53.514;10.482;2023-03-29T16:35:37;45.77;;;40.87;;
23682;SDS011;24897;53.514;10.482;2023-03-29T16:38:25;46.33;;;41.47;;
23682;SDS011;24897;53.514;10.482;2023-03-29T16:41:15;42.53;;;38.23;;
23682;SDS011;24897;53.514;10.482;2023-03-29T16:43:59;43.67;;;39.37;;
23682;SDS011;24897;53.514;10.482;2023-03-29T16:46:44;46.80;;;41.80;;
23682;SDS011;24897;53.514;10.482;2023-03-29T16:49:28;44.90;;;40.40;;
23682;SDS011;24897;53.514;10.482;2023-03-29T16:52:12;46.50;;;41.50;;
23682;SDS011;24897;53.514;10.482;2023-03-29T16:54:56;42.60;;;38.33;;
23682;SDS011;24897;53.514;10.482;2023-03-29T16:57:40;45.83;;;41.23;;
23682;SDS011;24897;53.514;10.482;2023-03-29T17:00:25;47.83;;;42.73;;
23682;SDS011;24897;53.514;10.482;2023-03-29T17:03:09;48.37;;;43.00;;
23682;SDS011;24897;53.514;10.482;2023-03-29T17:05:54;43.40;;;39.20;;
23682;SDS011;24897;53.514;10.482;2023-03-29T17:08:40;42.77;;;38.37;;
23682;SDS011;24897;53.514;10.482;2023-03-29T17:11:27;44.70;;;40.10;;
23682;SDS011;24897;53.514;10.482;2023-03-29T17:14:11;46.10;;;41.20;;
23682;SDS011;24897;53.514;10.482;2023-03-29T17:16:56;46.20;;;41.43;;
23682;SDS011;24897;53.514;10.482;2023-03-29T17:19:40;46.07;;;41.03;;
23682;SDS011;24897;53.514;10.482;2023-03-29T17:22:24;47.60;;;42.50;;
23682;SDS011;24897;53.514;10.482;2023-03-29T17:25:08;43.63;;;39.23;;
23682;SDS011;24897;53.514;10.482;2023-03-29T17:27:52;43.00;;;38.80;;
23682;SDS011;24897;53.514;10.482;2023-03-29T17:30:36;42.00;;;37.70;;
23682;SDS011;24897;53.514;10.482;2023-03-29T17:33:21;43.73;;;39.13;;
23682;SDS011;24897;53.514;10.482;2023-03-29T17:36:08;44.67;;;40.07;;
23682;SDS011;24897;53.514;10.482;2023-03-29T17:38:54;44.73;;;40.13;;
23682;SDS011;24897;53.514;10.482;2023-03-29T17:41:38;43.80;;;39.30;;
23682;SDS011;24897;53.514;10.482;2023-03-29T17:44:22;51.60;;;45.50;;
23682;SDS011;24897;53.514;10.482;2023-03-29T17:47:06;43.40;;;38.80;;
23682;SDS011;24897;53.514;10.482;2023-03-29T17:49:50;44.00;;;39.40;;
23682;SDS011;24897;53.514;10.482;2023-03-29T17:52:35;43.67;;;39.07;;
23682;SDS011;24897;53.514;10.482;2023-03-29T17:55:22;44.77;;;39.97;;
23682;SDS011;24897;53.514;10.482;2023-03-29T17:58:06;46.33;;;40.97;;
23682;SDS011;24897;53.514;10.482;2023-03-29T18:00:51;43.27;;;38.87;;
23682;SDS011;24897;53.514;10.482;2023-03-29T18:03:35;44.30;;;39.80;;
23682;SDS011;24897;53.514;10.482;2023-03-29T18:06:20;45.00;;;40.33;;
23682;SDS011;24897;53.514;10.482;2023-03-29T18:09:04;43.03;;;38.33;;